createdAt,value
2024-01-08T00:01:50.092Z,96858.97
2024-01-08T00:03:51.919Z,96857.69
2024-01-08T00:05:53.628Z,96858.97
2024-01-08T00:07:56.557Z,96861.44
2024-01-08T00:09:58.806Z,96861.25
2024-01-08T00:12:00.412Z,96856.84
2024-01-08T00:14:02.095Z,96855.63
2024-01-08T00:16:03.961Z,96854.78
2024-01-08T00:18:05.669Z,96853.75
2024-01-08T00:20:08.807Z,96850.81
2024-01-08T00:22:10.330Z,96858.34
2024-01-08T00:24:13.280Z,96857.09
2024-01-08T00:26:15.048Z,96865.44
2024-01-08T00:28:16.639Z,96859.56
2024-01-08T00:30:18.719Z,96861.78
2024-01-08T00:32:20.405Z,96856.16
2024-01-08T00:34:22.315Z,96856.88
2024-01-08T00:36:23.974Z,96854.16
2024-01-08T00:38:25.609Z,96866.00
2024-01-08T00:40:28.550Z,96858.03
2024-01-08T00:42:30.094Z,96865.28
2024-01-08T00:44:31.802Z,96861.72
2024-01-08T00:46:33.485Z,96863.03
2024-01-08T00:48:35.064Z,96860.84
2024-01-08T00:50:36.700Z,96867.19
2024-01-08T00:52:38.321Z,96864.28
2024-01-08T00:54:39.869Z,96859.16
2024-01-08T00:56:42.787Z,96862.19
2024-01-08T00:58:44.373Z,96863.53
2024-01-08T01:00:45.931Z,96860.59
2024-01-08T01:02:47.794Z,96867.91
2024-01-08T01:04:49.760Z,96860.63
2024-01-08T01:06:51.442Z,96870.44
2024-01-08T01:08:52.960Z,96868.13
2024-01-08T01:10:54.600Z,96865.19
2024-01-08T01:12:57.747Z,96866.25
2024-01-08T01:14:59.254Z,96864.56
2024-01-08T01:17:00.810Z,96867.06
2024-01-08T01:19:02.561Z,96871.41
2024-01-08T01:21:04.309Z,96865.63
2024-01-08T01:23:05.974Z,96870.84
2024-01-08T01:25:08.220Z,96873.63
2024-01-08T01:27:09.786Z,96875.06
2024-01-08T01:29:12.692Z,96875.31
2024-01-08T01:31:14.320Z,96884.19
2024-01-08T01:33:15.930Z,96881.44
2024-01-08T01:35:17.582Z,96879.91
2024-01-08T01:37:19.197Z,96880.28
2024-01-08T01:39:20.764Z,96879.25
2024-01-08T01:41:22.348Z,96874.78
2024-01-08T01:43:25.422Z,96878.13
2024-01-08T01:45:28.316Z,96872.03
2024-01-08T01:47:30.063Z,96881.84
2024-01-08T01:49:31.903Z,96872.34
2024-01-08T01:51:33.558Z,96885.78
2024-01-08T01:53:36.000Z,96881.13
2024-01-08T01:55:38.535Z,96880.59
2024-01-08T01:57:41.334Z,96878.06
2024-01-08T01:59:43.931Z,96890.03
2024-01-08T02:01:47.068Z,96877.38
2024-01-08T02:03:48.972Z,96877.25
2024-01-08T02:05:51.112Z,96889.78
2024-01-08T02:07:53.506Z,96880.97
2024-01-08T02:09:55.822Z,96869.41
2024-01-08T02:11:57.410Z,96868.16
2024-01-08T02:13:59.009Z,96875.28
2024-01-08T02:16:00.640Z,96868.84
2024-01-08T02:18:04.229Z,96868.78
2024-01-08T02:20:07.130Z,96858.28
2024-01-08T02:22:08.686Z,96870.22
2024-01-08T02:24:11.642Z,96865.28
2024-01-08T02:26:13.884Z,96859.19
2024-01-08T02:28:15.542Z,96864.69
2024-01-08T02:30:17.126Z,96862.38
2024-01-08T02:32:18.879Z,96856.28
2024-01-08T02:34:20.465Z,96855.50
2024-01-08T02:36:22.033Z,96862.06
2024-01-08T02:38:23.711Z,96862.66
2024-01-08T02:40:27.360Z,96875.88
2024-01-08T02:42:28.935Z,96859.81
2024-01-08T02:44:30.637Z,96863.72
2024-01-08T02:46:32.251Z,96865.53
2024-01-08T02:48:34.030Z,96864.59
2024-01-08T02:50:35.677Z,96864.69
2024-01-08T02:52:37.640Z,96867.41
2024-01-08T02:54:39.140Z,96871.38
2024-01-08T02:56:42.088Z,96878.91
2024-01-08T02:58:43.690Z,96873.69
2024-01-08T03:00:45.238Z,96867.66
2024-01-08T03:02:46.846Z,96868.88
2024-01-08T03:04:48.412Z,96870.16
2024-01-08T03:06:50.045Z,96868.38
2024-01-08T03:08:51.670Z,96871.00
2024-01-08T03:10:53.201Z,96869.41
2024-01-08T03:12:56.098Z,96870.75
2024-01-08T03:14:57.694Z,96863.25
2024-01-08T03:16:59.284Z,96867.44
2024-01-08T03:19:00.934Z,96870.81
2024-01-08T03:21:02.513Z,96867.41
2024-01-08T03:23:04.393Z,96874.28
2024-01-08T03:25:06.725Z,96860.72
2024-01-08T03:27:08.251Z,96870.31
2024-01-08T03:29:11.158Z,96866.31
2024-01-08T03:31:12.697Z,96862.84
2024-01-08T03:33:14.434Z,96860.34
2024-01-08T03:35:18.250Z,96869.34
2024-01-08T03:37:19.759Z,96866.25
2024-01-08T03:39:21.247Z,96868.00
2024-01-08T03:41:23.018Z,96860.06
2024-01-08T03:43:24.532Z,96863.53
2024-01-08T03:45:27.395Z,96859.13
2024-01-08T03:47:29.073Z,96866.78
2024-01-08T03:49:30.723Z,96856.66
2024-01-08T03:51:33.089Z,96862.97
2024-01-08T03:53:34.981Z,96869.28
2024-01-08T03:55:36.601Z,96866.56
2024-01-08T03:57:38.377Z,96867.53
2024-01-08T03:59:39.971Z,96878.81
2024-01-08T04:01:46.057Z,96869.81
2024-01-08T04:03:47.719Z,96874.03
2024-01-08T04:05:49.323Z,96872.03
2024-01-08T04:07:50.913Z,96874.88
2024-01-08T04:09:52.568Z,96875.91
2024-01-08T04:11:54.140Z,96873.09
2024-01-08T04:13:55.732Z,96878.50
2024-01-08T04:15:57.326Z,96875.97
2024-01-08T04:18:00.371Z,96883.09
2024-01-08T04:20:02.026Z,96876.19
2024-01-08T04:22:03.669Z,96889.91
2024-01-08T04:24:05.552Z,96881.84
2024-01-08T04:26:07.124Z,96874.16
2024-01-08T04:28:08.754Z,96870.34
2024-01-08T04:30:11.073Z,96871.88
2024-01-08T04:32:12.715Z,96877.63
2024-01-08T04:34:15.833Z,96877.97
2024-01-08T04:36:17.494Z,96882.66
2024-01-08T04:38:19.087Z,96880.38
2024-01-08T04:40:20.686Z,96880.19
2024-01-08T04:42:22.329Z,96881.31
2024-01-08T04:44:23.975Z,96877.94
2024-01-08T04:46:25.518Z,96880.75
2024-01-08T04:48:27.319Z,96890.31
2024-01-08T04:50:30.431Z,96882.00
2024-01-08T04:52:32.023Z,96886.59
2024-01-08T04:54:33.648Z,96887.19
2024-01-08T04:56:35.272Z,96880.66
2024-01-08T04:58:36.832Z,96894.41
2024-01-08T05:00:38.342Z,96896.28
2024-01-08T05:02:39.972Z,96900.50
2024-01-08T05:04:42.856Z,96896.59
2024-01-08T05:06:45.946Z,96897.97
2024-01-08T05:08:47.575Z,96887.91
2024-01-08T05:10:49.057Z,96895.19
2024-01-08T05:12:50.591Z,96888.75
2024-01-08T05:14:52.236Z,96899.00
2024-01-08T05:16:53.784Z,96903.94
2024-01-08T05:18:55.592Z,96900.56
2024-01-08T05:20:57.214Z,96897.91
2024-01-08T05:23:00.130Z,96895.97
2024-01-08T05:25:01.702Z,96893.34
2024-01-08T05:27:03.610Z,96899.31
2024-01-08T05:29:05.313Z,96904.31
2024-01-08T05:31:06.934Z,96912.72
2024-01-08T05:33:08.550Z,96905.81
2024-01-08T05:35:10.405Z,96910.25
2024-01-08T05:37:11.987Z,96914.56
2024-01-08T05:39:15.435Z,96908.97
2024-01-08T05:41:19.277Z,96907.84
2024-01-08T05:43:21.845Z,96908.59
2024-01-08T05:45:23.404Z,96914.72
2024-01-08T05:47:25.048Z,96911.78
2024-01-08T05:49:26.786Z,96913.06
2024-01-08T05:51:28.740Z,96916.22
2024-01-08T05:53:30.304Z,96914.66
2024-01-08T05:55:33.184Z,96913.47
2024-01-08T05:57:34.743Z,96921.31
2024-01-08T05:59:38.700Z,96915.22
2024-01-08T06:01:42.221Z,96923.28
2024-01-08T06:03:43.908Z,96921.25
2024-01-08T06:05:45.551Z,96927.41
2024-01-08T06:07:47.134Z,96925.16
2024-01-08T06:09:48.691Z,96931.09
2024-01-08T06:11:51.600Z,96924.59
2024-01-08T06:13:53.244Z,96930.16
2024-01-08T06:15:54.816Z,96930.94
2024-01-08T06:17:56.355Z,96929.72
2024-01-08T06:19:57.925Z,96935.03
2024-01-08T06:21:59.509Z,96936.16
2024-01-08T06:24:01.024Z,96930.16
2024-01-08T06:26:03.282Z,96930.00
2024-01-08T06:28:06.490Z,96925.19
2024-01-08T06:30:09.139Z,96914.22
2024-01-08T06:32:10.721Z,96924.97
2024-01-08T06:34:12.461Z,96925.72
2024-01-08T06:36:16.853Z,96915.22
2024-01-08T06:38:18.425Z,96936.34
2024-01-08T06:40:21.573Z,96938.69
2024-01-08T06:42:23.538Z,96930.09
2024-01-08T06:44:26.458Z,96928.97
2024-01-08T06:46:28.002Z,96938.94
2024-01-08T06:48:32.378Z,96944.00
2024-01-08T06:50:33.802Z,96947.16
2024-01-08T06:52:35.317Z,96944.56
2024-01-08T06:54:36.845Z,96943.06
2024-01-08T06:56:39.072Z,96949.41
2024-01-08T06:58:40.682Z,96945.56
2024-01-08T07:00:43.601Z,96935.78
2024-01-08T07:02:45.309Z,96948.84
2024-01-08T07:04:46.922Z,96948.09
2024-01-08T07:06:48.823Z,96950.56
2024-01-08T07:08:50.411Z,96958.16
2024-01-08T07:10:51.993Z,96952.00
2024-01-08T07:12:53.573Z,96952.94
2024-01-08T07:14:55.082Z,96954.41
2024-01-08T07:16:58.053Z,96957.59
2024-01-08T07:19:02.052Z,96957.84
2024-01-08T07:21:05.162Z,96959.25
2024-01-08T07:23:08.441Z,96964.84
2024-01-08T07:25:10.138Z,96956.38
2024-01-08T07:27:11.704Z,96971.34
2024-01-08T07:29:13.359Z,96969.59
2024-01-08T07:31:15.016Z,96973.41
2024-01-08T07:33:18.047Z,96966.31
2024-01-08T07:35:19.709Z,96965.94
2024-01-08T07:37:21.243Z,96971.72
2024-01-08T07:39:22.801Z,96966.78
2024-01-08T07:41:24.357Z,96964.28
2024-01-08T07:43:26.290Z,96968.38
2024-01-08T07:45:28.997Z,96973.59
2024-01-08T07:47:30.777Z,96976.00
2024-01-08T07:49:33.803Z,96969.00
2024-01-08T07:51:35.322Z,96975.25
2024-01-08T07:53:37.065Z,96973.28
2024-01-08T07:55:38.608Z,96961.94
2024-01-08T07:57:40.154Z,96972.47
2024-01-08T07:59:41.755Z,96977.28
2024-01-08T08:01:43.349Z,96978.03
2024-01-08T08:03:45.058Z,96974.66
2024-01-08T08:05:48.080Z,96988.63
2024-01-08T08:07:49.783Z,96980.19
2024-01-08T08:09:51.323Z,96983.53
2024-01-08T08:11:52.870Z,96982.69
2024-01-08T08:13:54.519Z,96981.94
2024-01-08T08:15:56.277Z,96985.56
2024-01-08T08:17:59.459Z,96983.25
2024-01-08T08:20:02.863Z,96995.34
2024-01-08T08:22:05.771Z,96986.03
2024-01-08T08:24:07.277Z,96990.50
2024-01-08T08:26:12.831Z,96984.38
2024-01-08T08:28:16.748Z,96990.88
2024-01-08T08:30:18.536Z,96984.28
2024-01-08T08:32:20.217Z,96974.84
2024-01-08T08:34:22.855Z,96976.91
2024-01-08T08:36:26.213Z,96979.34
2024-01-08T08:38:29.249Z,96974.31
2024-01-08T08:40:30.777Z,96980.28
2024-01-08T08:42:32.319Z,96986.31
2024-01-08T08:44:34.008Z,96984.72
2024-01-08T08:46:37.887Z,96978.03
2024-01-08T08:48:39.575Z,96993.50
2024-01-08T08:50:41.329Z,96991.63
2024-01-08T08:52:42.931Z,96997.56
2024-01-08T08:54:45.822Z,97004.75
2024-01-08T08:56:47.466Z,97004.19
2024-01-08T08:58:48.974Z,97013.41
2024-01-08T09:00:50.902Z,97018.41
2024-01-08T09:02:52.554Z,97022.88
2024-01-08T09:04:54.214Z,97018.59
2024-01-08T09:06:58.550Z,97020.25
2024-01-08T09:09:00.704Z,97024.94
2024-01-08T09:11:04.005Z,97017.31
2024-01-08T09:13:05.660Z,97030.03
2024-01-08T09:15:07.633Z,97025.50
2024-01-08T09:17:09.180Z,97024.56
2024-01-08T09:19:10.784Z,97031.25
2024-01-08T09:21:13.323Z,97030.59
2024-01-08T09:23:14.910Z,97024.84
2024-01-08T09:25:16.537Z,97029.78
2024-01-08T09:27:19.536Z,97034.25
2024-01-08T09:29:21.161Z,97048.19
2024-01-08T09:31:22.754Z,97041.81
2024-01-08T09:33:24.372Z,97041.66
2024-01-08T09:35:26.061Z,97029.56
2024-01-08T09:37:29.080Z,97048.09
2024-01-08T09:39:30.769Z,97042.50
2024-01-08T09:41:32.368Z,97053.75
2024-01-08T09:43:38.797Z,97050.03
2024-01-08T09:45:54.058Z,97052.84
2024-01-08T09:47:56.153Z,97035.72
2024-01-08T09:50:01.367Z,97047.63
2024-01-08T09:52:04.462Z,97058.81
2024-01-08T09:54:07.332Z,97044.84
2024-01-08T09:56:11.807Z,97056.84
2024-01-08T09:58:13.448Z,97042.06
2024-01-08T10:00:17.578Z,97045.13
2024-01-08T10:02:19.267Z,97047.28
2024-01-08T10:04:22.486Z,97054.53
2024-01-08T10:06:24.566Z,97040.75
2024-01-08T10:08:26.286Z,97050.06
2024-01-08T10:10:27.836Z,97044.09
2024-01-08T10:12:32.558Z,97055.22
2024-01-08T10:14:34.921Z,97051.94
2024-01-08T10:16:50.328Z,97050.72
2024-01-08T10:18:59.327Z,97046.91
2024-01-08T10:21:12.000Z,97044.28
2024-01-08T10:23:13.702Z,97055.28
2024-01-08T10:25:21.165Z,97036.47
2024-01-08T10:27:24.145Z,97051.94
2024-01-08T10:29:25.901Z,97051.00
2024-01-08T10:31:27.442Z,97048.38
2024-01-08T10:33:31.013Z,97034.06
2024-01-08T10:35:34.379Z,97037.41
2024-01-08T10:37:37.465Z,97042.44
2024-01-08T10:39:48.026Z,97044.09
2024-01-08T10:41:53.113Z,97040.56
2024-01-08T10:43:54.813Z,97039.09
2024-01-08T10:45:59.124Z,97032.19
2024-01-08T10:48:06.100Z,97035.53
2024-01-08T10:50:10.650Z,97046.53
2024-01-08T10:52:21.761Z,97039.06
2024-01-08T10:54:23.666Z,97041.66
2024-01-08T10:56:26.295Z,97041.69
2024-01-08T10:58:34.877Z,97043.44
2024-01-08T11:00:36.715Z,97045.84
2024-01-08T11:02:39.233Z,97042.06
2024-01-08T11:04:42.303Z,97044.47
2024-01-08T11:06:46.954Z,97040.41
2024-01-08T11:08:50.173Z,97044.47
2024-01-08T11:10:52.002Z,97040.56
2024-01-08T11:12:54.311Z,97037.22
2024-01-08T11:15:02.091Z,97036.28
2024-01-08T11:17:04.074Z,97036.66
2024-01-08T11:19:27.595Z,97042.53
2024-01-08T11:21:29.315Z,97038.69
2024-01-08T11:23:36.947Z,97042.09
2024-01-08T11:25:38.545Z,97042.34
2024-01-08T11:27:40.080Z,97035.75
2024-01-08T11:29:41.686Z,97041.72
2024-01-08T11:32:40.294Z,97038.25
2024-01-08T11:34:54.485Z,97043.53
2024-01-08T11:37:10.108Z,97040.84
2024-01-08T11:39:17.763Z,97039.19
2024-01-08T11:41:19.326Z,97038.41
2024-01-08T11:43:20.932Z,97032.56
2024-01-08T11:45:22.720Z,97035.53
2024-01-08T11:47:24.313Z,97032.94
2024-01-08T11:49:26.157Z,97030.81
2024-01-08T11:51:27.750Z,97023.81
2024-01-08T11:53:29.689Z,97020.66
2024-01-08T11:55:32.680Z,97020.66
2024-01-08T11:57:35.509Z,97022.72
2024-01-08T11:59:37.767Z,97020.31
2024-01-08T12:01:39.479Z,97021.22
2024-01-08T12:03:41.154Z,97022.97
2024-01-08T12:05:42.938Z,97018.06
2024-01-08T12:07:44.635Z,97022.91
2024-01-08T12:09:46.973Z,97026.59
2024-01-08T12:12:03.278Z,97011.81
2024-01-08T12:14:04.856Z,97017.34
2024-01-08T12:16:06.805Z,97031.09
2024-01-08T12:18:08.586Z,97011.13
2024-01-08T12:20:11.435Z,97007.34
2024-01-08T12:22:14.312Z,97011.63
2024-01-08T12:24:15.871Z,97012.44
2024-01-08T12:26:19.479Z,97014.63
2024-01-08T12:28:27.065Z,97015.56
2024-01-08T12:30:28.856Z,97016.97
2024-01-08T12:32:30.634Z,97019.75
2024-01-08T12:34:32.698Z,97015.59
2024-01-08T12:36:34.365Z,97016.84
2024-01-08T12:38:35.969Z,97016.28
2024-01-08T12:40:37.602Z,97018.66
2024-01-08T12:42:39.217Z,97020.03
2024-01-08T12:44:44.742Z,97015.94
2024-01-08T12:46:46.314Z,97015.25
2024-01-08T12:48:47.935Z,97010.19
2024-01-08T12:50:49.691Z,97014.38
2024-01-08T12:52:51.418Z,97019.56
2024-01-08T12:54:52.989Z,97007.53
2024-01-08T12:56:54.654Z,97014.47
2024-01-08T12:58:56.223Z,97009.31
2024-01-08T13:00:59.303Z,97018.78
2024-01-08T13:03:01.104Z,97013.41
2024-01-08T13:05:02.902Z,97017.63
2024-01-08T13:07:04.822Z,97017.28
2024-01-08T13:09:06.363Z,97008.47
2024-01-08T13:11:09.930Z,97010.69
2024-01-08T13:13:14.031Z,97016.84
2024-01-08T13:15:15.763Z,97025.34
2024-01-08T13:17:18.737Z,97019.25
2024-01-08T13:19:20.390Z,97015.13
2024-01-08T13:21:22.034Z,97026.47
2024-01-08T13:23:23.627Z,97011.31
2024-01-08T13:25:25.295Z,97026.78
2024-01-08T13:27:26.947Z,97031.81
2024-01-08T13:29:31.432Z,97033.03
2024-01-08T13:31:33.115Z,97026.78
2024-01-08T13:33:36.065Z,97030.50
2024-01-08T13:35:37.656Z,97020.59
2024-01-08T13:37:39.273Z,97031.56
2024-01-08T13:39:40.885Z,97032.00
2024-01-08T13:41:42.585Z,97023.38
2024-01-08T13:43:44.126Z,97017.81
2024-01-08T13:45:45.649Z,97027.63
2024-01-08T13:47:47.237Z,97033.56
2024-01-08T13:49:50.186Z,97027.66
2024-01-08T13:51:52.064Z,97027.81
2024-01-08T13:53:53.595Z,97033.38
2024-01-08T13:55:55.145Z,97028.91
2024-01-08T13:57:56.644Z,97028.78
2024-01-08T13:59:59.249Z,97031.69
2024-01-08T14:02:02.133Z,97024.47
2024-01-08T14:04:03.859Z,97031.09
2024-01-08T14:06:06.943Z,97037.50
2024-01-08T14:08:08.624Z,97032.97
2024-01-08T14:10:10.703Z,97035.34
2024-01-08T14:12:12.223Z,97037.31
2024-01-08T14:14:16.712Z,97042.69
2024-01-08T14:16:19.741Z,97040.56
2024-01-08T14:18:21.453Z,97041.41
2024-01-08T14:20:23.099Z,97037.84
2024-01-08T14:22:26.118Z,97043.72
2024-01-08T14:24:27.819Z,97043.31
2024-01-08T14:26:29.381Z,97043.47
2024-01-08T14:28:30.924Z,97054.53
2024-01-08T14:30:32.508Z,97049.56
2024-01-08T14:32:34.559Z,97054.97
2024-01-08T14:34:36.301Z,97061.41
2024-01-08T14:36:38.180Z,97055.59
2024-01-08T14:38:41.122Z,97061.44
2024-01-08T14:40:42.772Z,97068.50
2024-01-08T14:42:44.313Z,97067.22
2024-01-08T14:44:46.308Z,97062.28
2024-01-08T14:46:47.895Z,97065.59
2024-01-08T14:48:49.548Z,97065.44
2024-01-08T14:50:51.175Z,97060.53
2024-01-08T14:52:52.701Z,97066.03
2024-01-08T14:54:55.587Z,97063.63
2024-01-08T14:56:57.185Z,97059.56
2024-01-08T14:58:58.744Z,97069.75
2024-01-08T15:01:00.425Z,97061.00
2024-01-08T15:03:02.085Z,97045.66
2024-01-08T15:05:04.015Z,97067.31
2024-01-08T15:07:05.724Z,97066.16
2024-01-08T15:09:07.307Z,97067.06
2024-01-08T15:11:10.334Z,97064.53
2024-01-08T15:13:11.940Z,97067.38
2024-01-08T15:15:13.566Z,97072.94
2024-01-08T15:17:15.300Z,97078.50
2024-01-08T15:19:16.896Z,97072.44
2024-01-08T15:21:18.579Z,97074.44
2024-01-08T15:23:20.238Z,97080.06
2024-01-08T15:25:21.798Z,97086.59
2024-01-08T15:27:25.147Z,97082.66
2024-01-08T15:29:26.760Z,97084.91
2024-01-08T15:31:28.349Z,97087.84
2024-01-08T15:33:29.990Z,97086.28
2024-01-08T15:35:31.604Z,97092.63
2024-01-08T15:37:33.147Z,97092.63
2024-01-08T15:39:34.709Z,97091.50
2024-01-08T15:41:36.325Z,97099.25
2024-01-08T15:43:39.423Z,97096.22
2024-01-08T15:45:40.923Z,97101.66
2024-01-08T15:47:42.704Z,97107.63
2024-01-08T15:49:44.439Z,97108.34
2024-01-08T15:51:46.052Z,97101.81
2024-01-08T15:53:47.639Z,97108.03
2024-01-08T15:55:49.163Z,97110.56
2024-01-08T15:57:50.687Z,97109.97
2024-01-08T15:59:53.699Z,97114.16
2024-01-08T16:01:55.288Z,97123.94
2024-01-08T16:03:56.980Z,97119.50
2024-01-08T16:05:58.698Z,97125.25
2024-01-08T16:08:00.390Z,97123.94
2024-01-08T16:10:01.979Z,97126.91
2024-01-08T16:12:06.099Z,97125.59
2024-01-08T16:14:08.534Z,97131.22
2024-01-08T16:16:11.479Z,97128.72
2024-01-08T16:18:13.202Z,97111.06
2024-01-08T16:20:15.014Z,97130.00
2024-01-08T16:22:16.549Z,97135.66
2024-01-08T16:24:18.312Z,97134.75
2024-01-08T16:26:19.892Z,97138.78
2024-01-08T16:28:21.448Z,97140.28
2024-01-08T16:30:23.154Z,97147.47
2024-01-08T16:32:26.810Z,97143.97
2024-01-08T16:34:37.579Z,97149.94
2024-01-08T16:36:47.290Z,97157.66
2024-01-08T16:38:49.519Z,97157.63
2024-01-08T16:40:51.141Z,97150.06
2024-01-08T16:42:52.655Z,97163.63
2024-01-08T16:44:54.275Z,97157.72
2024-01-08T16:46:55.822Z,97164.13
2024-01-08T16:48:58.869Z,97151.50
2024-01-08T16:51:04.452Z,97156.28
2024-01-08T16:53:06.123Z,97157.63
2024-01-08T16:55:08.464Z,97164.47
2024-01-08T16:57:10.285Z,97170.38
2024-01-08T16:59:11.864Z,97170.59
2024-01-08T17:01:13.365Z,97164.91
2024-01-08T17:03:15.044Z,97169.69
2024-01-08T17:05:18.193Z,97166.50
2024-01-08T17:07:19.821Z,97173.91
2024-01-08T17:09:21.348Z,97174.41
2024-01-08T17:11:22.902Z,97180.78
2024-01-08T17:13:24.481Z,97182.25
2024-01-08T17:15:26.038Z,97176.19
2024-01-08T17:17:28.095Z,97175.34
2024-01-08T17:19:29.875Z,97184.94
2024-01-08T17:21:32.800Z,97184.00
2024-01-08T17:23:34.403Z,97186.75
2024-01-08T17:25:35.924Z,97186.34
2024-01-08T17:27:37.520Z,97190.38
2024-01-08T17:29:40.330Z,97195.50
2024-01-08T17:31:41.995Z,97193.88
2024-01-08T17:33:43.743Z,97203.94
2024-01-08T17:35:45.512Z,97198.59
2024-01-08T17:37:48.452Z,97186.88
2024-01-08T17:39:50.112Z,97193.59
2024-01-08T17:41:51.663Z,97193.06
2024-01-08T17:43:53.210Z,97201.81
2024-01-08T17:45:55.127Z,97197.75
2024-01-08T17:47:56.776Z,97214.19
2024-01-08T17:49:58.442Z,97193.06
2024-01-08T17:51:59.990Z,97206.44
2024-01-08T17:54:02.870Z,97212.91
2024-01-08T17:56:05.177Z,97211.22
2024-01-08T17:58:06.761Z,97209.09
2024-01-08T18:00:10.547Z,97212.91
2024-01-08T18:02:13.093Z,97215.91
2024-01-08T18:04:14.692Z,97217.94
2024-01-08T18:06:16.382Z,97213.91
2024-01-08T18:08:18.179Z,97208.94
2024-01-08T18:10:21.441Z,97214.91
2024-01-08T18:12:22.940Z,97208.03
2024-01-08T18:14:24.583Z,97224.84
2024-01-08T18:16:26.173Z,97223.56
2024-01-08T18:18:27.901Z,97218.44
2024-01-08T18:20:29.683Z,97211.88
2024-01-08T18:22:31.206Z,97226.41
2024-01-08T18:24:33.012Z,97226.84
2024-01-08T18:26:36.208Z,97223.66
2024-01-08T18:28:37.851Z,97226.09
2024-01-08T18:30:39.965Z,97229.38
2024-01-08T18:32:42.281Z,97227.41
2024-01-08T18:34:44.449Z,97232.72
2024-01-08T18:36:46.014Z,97229.50
2024-01-08T18:38:47.633Z,97226.41
2024-01-08T18:40:49.279Z,97233.41
2024-01-08T18:42:52.633Z,97235.91
2024-01-08T18:44:54.267Z,97227.16
2024-01-08T18:46:55.816Z,97230.69
2024-01-08T18:48:57.430Z,97228.34
2024-01-08T18:50:59.335Z,97230.53
2024-01-08T18:53:01.144Z,97228.03
2024-01-08T18:55:03.244Z,97232.03
2024-01-08T18:57:05.089Z,97232.97
2024-01-08T18:59:08.048Z,97226.66
2024-01-08T19:01:09.674Z,97220.63
2024-01-08T19:03:11.305Z,97235.31
2024-01-08T19:05:14.265Z,97237.16
2024-01-08T19:07:16.798Z,97239.00
2024-01-08T19:09:18.408Z,97236.75
2024-01-08T19:11:19.951Z,97239.13
2024-01-08T19:13:21.526Z,97235.06
2024-01-08T19:15:24.443Z,97237.34
2024-01-08T19:17:26.106Z,97229.00
2024-01-08T19:19:27.733Z,97233.56
2024-01-08T19:21:29.358Z,97237.00
2024-01-08T19:23:30.977Z,97244.16
2024-01-08T19:25:32.577Z,97238.28
2024-01-08T19:27:34.179Z,97241.19
2024-01-08T19:29:35.738Z,97237.44
2024-01-08T19:31:44.705Z,97237.91
2024-01-08T19:33:46.254Z,97245.50
2024-01-08T19:35:48.093Z,97229.63
2024-01-08T19:37:49.616Z,97231.38
2024-01-08T19:39:51.162Z,97242.28
2024-01-08T19:41:52.733Z,97231.72
2024-01-08T19:43:54.291Z,97235.34
2024-01-08T19:45:55.881Z,97245.75
2024-01-08T19:47:58.807Z,97250.38
2024-01-08T19:50:00.581Z,97240.13
2024-01-08T19:52:02.125Z,97255.22
2024-01-08T19:54:03.986Z,97253.00
2024-01-08T19:56:06.486Z,97259.22
2024-01-08T19:58:08.116Z,97259.31
2024-01-08T20:00:10.918Z,97261.25
2024-01-08T20:02:12.476Z,97271.00
2024-01-08T20:04:15.532Z,97256.59
2024-01-08T20:06:17.207Z,97268.34
2024-01-08T20:08:18.888Z,97272.00
2024-01-08T20:10:21.390Z,97267.75
2024-01-08T20:12:22.968Z,97261.41
2024-01-08T20:14:24.938Z,97258.72
2024-01-08T20:16:26.530Z,97267.59
2024-01-08T20:18:28.228Z,97264.41
2024-01-08T20:20:31.249Z,97271.28
2024-01-08T20:22:32.890Z,97271.75
2024-01-08T20:24:34.467Z,97265.28
2024-01-08T20:26:36.077Z,97270.75
2024-01-08T20:28:38.568Z,97274.84
2024-01-08T20:30:40.143Z,97275.84
2024-01-08T20:32:41.865Z,97277.53
2024-01-08T20:34:43.519Z,97272.31
2024-01-08T20:36:46.461Z,97275.63
2024-01-08T20:38:48.068Z,97273.72
2024-01-08T20:40:49.674Z,97269.13
2024-01-08T20:42:51.224Z,97278.78
2024-01-08T20:44:52.884Z,97268.28
2024-01-08T20:46:54.548Z,97276.84
2024-01-08T20:48:56.088Z,97270.47
2024-01-08T20:50:57.743Z,97275.25
2024-01-08T20:53:00.712Z,97282.63
2024-01-08T20:55:02.294Z,97274.13
2024-01-08T20:57:05.426Z,97271.28
2024-01-08T20:59:07.208Z,97274.06
2024-01-08T21:01:08.925Z,97278.00
2024-01-08T21:03:10.659Z,97275.63
2024-01-08T21:05:12.441Z,97272.69
2024-01-08T21:07:14.055Z,97271.28
2024-01-08T21:09:16.940Z,97274.50
2024-01-08T21:11:18.526Z,97271.41
2024-01-08T21:13:20.119Z,97280.34
2024-01-08T21:15:21.869Z,97261.22
2024-01-08T21:17:23.599Z,97277.63
2024-01-08T21:19:25.183Z,97284.66
2024-01-08T21:21:26.779Z,97284.81
2024-01-08T21:23:28.449Z,97277.13
2024-01-08T21:25:31.381Z,97277.47
2024-01-08T21:27:33.058Z,97267.06
2024-01-08T21:29:34.664Z,97288.69
2024-01-08T21:31:36.281Z,97282.34
2024-01-08T21:33:39.160Z,97290.78
2024-01-08T21:35:40.822Z,97278.06
2024-01-08T21:37:42.388Z,97283.13
2024-01-08T21:39:44.379Z,97287.56
2024-01-08T21:41:47.309Z,97289.09
2024-01-08T21:43:48.925Z,97281.13
2024-01-08T21:45:50.463Z,97282.22
2024-01-08T21:47:52.220Z,97287.41
2024-01-08T21:49:54.384Z,97284.94
2024-01-08T21:51:56.099Z,97272.59
2024-01-08T21:53:57.854Z,97281.00
2024-01-08T21:55:59.361Z,97276.63
2024-01-08T21:58:02.646Z,97284.28
2024-01-08T22:00:06.881Z,97281.97
2024-01-08T22:02:08.449Z,97269.22
2024-01-08T22:04:10.094Z,97284.81
2024-01-08T22:06:11.819Z,97279.47
2024-01-08T22:08:13.460Z,97283.56
2024-01-08T22:10:15.200Z,97282.22
2024-01-08T22:12:16.779Z,97287.09
2024-01-08T22:14:19.812Z,97282.69
2024-01-08T22:16:21.388Z,97292.13
2024-01-08T22:18:22.985Z,97287.63
2024-01-08T22:20:24.611Z,97274.41
2024-01-08T22:22:26.185Z,97281.75
2024-01-08T22:24:27.750Z,97286.94
2024-01-08T22:26:29.637Z,97283.53
2024-01-08T22:28:32.046Z,97277.78
2024-01-08T22:30:34.975Z,97276.31
2024-01-08T22:32:36.795Z,97291.47
2024-01-08T22:34:38.677Z,97279.94
2024-01-08T22:36:40.294Z,97294.22
2024-01-08T22:38:41.918Z,97295.81
2024-01-08T22:40:43.471Z,97300.09
2024-01-08T22:42:45.797Z,97288.34
2024-01-08T22:44:47.707Z,97294.16
2024-01-08T22:46:50.676Z,97290.63
2024-01-08T22:48:52.344Z,97293.84
2024-01-08T22:50:53.933Z,97293.84
2024-01-08T22:52:55.501Z,97293.38
2024-01-08T22:54:57.815Z,97282.31
2024-01-08T22:57:01.780Z,97284.66
2024-01-08T22:59:03.498Z,97285.44
2024-01-08T23:01:09.398Z,97284.13
2024-01-08T23:03:12.454Z,97283.16
2024-01-08T23:05:14.222Z,97276.72
2024-01-08T23:07:15.804Z,97274.50
2024-01-08T23:09:17.394Z,97280.63
2024-01-08T23:11:18.965Z,97273.66
2024-01-08T23:13:20.520Z,97272.75
2024-01-08T23:15:22.075Z,97273.34
2024-01-08T23:17:23.721Z,97271.97
2024-01-08T23:19:26.800Z,97271.97
2024-01-08T23:21:28.384Z,97269.38
2024-01-08T23:23:30.124Z,97268.38
2024-01-08T23:25:31.760Z,97268.38
2024-01-08T23:27:33.273Z,97275.97
2024-01-08T23:29:34.843Z,97271.84
2024-01-08T23:31:36.796Z,97273.81
2024-01-08T23:33:38.586Z,97277.94
2024-01-08T23:35:41.508Z,97274.28
2024-01-08T23:37:43.122Z,97275.41
2024-01-08T23:39:44.630Z,97270.16
2024-01-08T23:41:46.433Z,97271.06
2024-01-08T23:43:48.414Z,97273.00
2024-01-08T23:45:49.929Z,97270.47
2024-01-08T23:47:51.582Z,97279.06
2024-01-08T23:49:53.212Z,97267.56
2024-01-08T23:51:56.054Z,97272.97
2024-01-08T23:53:57.600Z,97278.50
2024-01-08T23:55:59.255Z,97273.16
2024-01-08T23:58:00.740Z,97281.88
